Time;durP1;ratioP1;P1;durP2;ratioP2;P2;SDS_P1;SDS_P2;PMS_P1;PMS_P2;Temp;Humidity;BMP_temperature;BMP_pressure;BME280_temperature;BME280_humidity;BME280_pressure;Samples;Min_cycle;Max_cycle;Signal;HPM_P1;HPM_P2
2022/06/16 00:00:19;;;;;;;31.55;14.23;;;13.10;99.90;;;;;;5027084;28;20471;-64
2022/06/16 00:02:48;;;;;;;29.92;13.38;;;13.10;99.90;;;;;;5033511;28;20036;-63
2022/06/16 00:05:18;;;;;;;28.00;13.48;;;13.10;99.90;;;;;;5061198;28;20036;-63
2022/06/16 00:07:44;;;;;;;27.40;13.15;;;13.10;99.90;;;;;;5060738;28;20033;-63
2022/06/16 00:10:11;;;;;;;30.92;14.00;;;13.10;99.90;;;;;;5039598;28;20032;-64
2022/06/16 00:12:37;;;;;;;28.33;13.48;;;13.00;99.90;;;;;;5056121;28;20037;-65
2022/06/16 00:15:06;;;;;;;31.67;13.48;;;13.00;99.90;;;;;;5042056;28;20376;-64
2022/06/16 00:17:32;;;;;;;27.10;12.93;;;12.90;99.90;;;;;;5047197;28;20322;-64
2022/06/16 00:20:00;;;;;;;31.90;15.43;;;12.80;99.90;;;;;;5068193;28;20392;-64
2022/06/16 00:22:27;;;;;;;35.90;15.40;;;12.70;99.90;;;;;;5064930;28;20515;-64
2022/06/16 00:24:53;;;;;;;33.90;15.02;;;12.60;99.90;;;;;;5034340;28;20040;-63
2022/06/16 00:27:19;;;;;;;30.95;14.35;;;12.50;99.90;;;;;;5064795;28;20044;-64
2022/06/16 00:29:45;;;;;;;31.88;14.52;;;12.50;99.90;;;;;;5071658;28;20029;-64
2022/06/16 00:32:11;;;;;;;32.92;14.57;;;12.40;99.90;;;;;;5045796;28;20490;-64
2022/06/16 00:34:36;;;;;;;33.63;14.73;;;12.50;99.90;;;;;;5036906;28;20303;-64
2022/06/16 00:37:02;;;;;;;31.67;14.50;;;12.50;99.90;;;;;;5069110;28;20052;-63
2022/06/16 00:39:28;;;;;;;34.15;14.63;;;12.50;99.90;;;;;;5071858;28;20049;-65
2022/06/16 00:41:55;;;;;;;31.80;14.80;;;12.50;99.90;;;;;;5077076;28;20067;-64
2022/06/16 00:44:20;;;;;;;27.95;13.55;;;12.40;99.90;;;;;;5041583;28;20540;-64
2022/06/16 00:46:46;;;;;;;36.50;15.43;;;12.40;99.90;;;;;;5071116;28;20035;-64
2022/06/16 00:49:14;;;;;;;33.08;14.68;;;12.40;99.90;;;;;;5044850;28;20066;-64
2022/06/16 00:51:47;;;;;;;35.90;14.05;;;12.30;99.90;;;;;;5038197;28;20060;-64
2022/06/16 00:54:24;;;;;;;33.38;15.20;;;12.30;99.90;;;;;;5045634;28;20043;-64
2022/06/16 00:56:54;;;;;;;33.08;15.73;;;12.30;99.90;;;;;;5075542;28;20502;-65
2022/06/16 00:59:21;;;;;;;34.35;13.57;;;12.40;99.90;;;;;;5071171;28;20237;-65
2022/06/16 01:01:47;;;;;;;27.70;13.68;;;12.40;99.90;;;;;;5073166;28;20044;-65
2022/06/16 01:07:03;;;;;;;26.75;14.32;;;12.40;99.90;;;;;;5047190;28;20450;-64
2022/06/16 01:09:33;;;;;;;31.75;14.90;;;12.40;99.90;;;;;;5040914;28;20033;-63
2022/06/16 01:15:20;;;;;;;28.90;15.55;;;12.30;99.90;;;;;;5073814;28;20094;-64
2022/06/16 01:17:51;;;;;;;34.22;15.68;;;12.30;99.90;;;;;;5079149;28;20079;-64
2022/06/16 01:20:25;;;;;;;32.10;15.32;;;12.30;99.90;;;;;;5047411;28;20044;-64
2022/06/16 01:23:08;;;;;;;27.30;14.27;;;12.10;99.90;;;;;;5070160;28;20522;-64
2022/06/16 01:25:34;;;;;;;27.55;14.73;;;12.10;99.90;;;;;;5068904;28;20062;-63
2022/06/16 01:28:21;;;;;;;30.10;15.23;;;12.00;99.90;;;;;;5071713;28;20029;-64
2022/06/16 01:31:07;;;;;;;32.17;15.15;;;12.00;99.90;;;;;;5046104;28;20047;-64
2022/06/16 01:33:50;;;;;;;29.30;14.73;;;12.00;99.90;;;;;;5038964;28;20048;-64
2022/06/16 01:36:34;;;;;;;32.22;15.77;;;11.80;99.90;;;;;;5031675;28;20044;-64
2022/06/16 01:39:16;;;;;;;33.40;15.32;;;11.70;99.90;;;;;;5060720;28;20525;-64
2022/06/16 01:41:50;;;;;;;32.03;16.27;;;11.60;99.90;;;;;;5039677;28;20052;-64
2022/06/16 01:44:30;;;;;;;31.52;14.77;;;11.60;99.90;;;;;;5058780;28;20396;-64
2022/06/16 01:46:59;;;;;;;26.48;14.45;;;11.60;99.90;;;;;;5044944;28;20070;-63
2022/06/16 01:49:32;;;;;;;28.13;14.93;;;11.70;99.90;;;;;;5046781;28;20072;-64
2022/06/16 01:52:12;;;;;;;27.27;13.93;;;11.70;99.90;;;;;;5070179;28;20075;-63
2022/06/16 01:54:43;;;;;;;25.90;13.73;;;11.70;99.90;;;;;;5043341;28;20478;-63
2022/06/16 01:57:17;;;;;;;29.23;14.10;;;11.70;99.90;;;;;;5047545;28;20041;-63
2022/06/16 02:00:12;;;;;;;29.48;14.02;;;11.70;99.90;;;;;;5045763;28;20051;-64
2022/06/16 02:02:40;;;;;;;25.17;13.68;;;11.70;99.90;;;;;;5041752;28;20071;-64
2022/06/16 02:05:25;;;;;;;27.58;13.93;;;11.70;99.90;;;;;;5068186;28;20507;-64
2022/06/16 02:08:07;;;;;;;34.47;14.43;;;11.70;99.90;;;;;;5065909;28;20491;-65
2022/06/16 02:10:39;;;;;;;27.98;15.32;;;11.80;99.90;;;;;;5043741;28;20510;-64
2022/06/16 02:13:07;;;;;;;33.08;14.57;;;11.80;99.90;;;;;;5067248;28;20045;-63
2022/06/16 02:15:54;;;;;;;29.08;13.25;;;11.70;99.90;;;;;;5046590;28;20055;-64
2022/06/16 02:18:27;;;;;;;29.27;13.75;;;11.70;99.90;;;;;;5053595;28;20041;-64
2022/06/16 02:21:01;;;;;;;;;;;11.80;99.90;;;;;;5040491;28;20242;-64
2022/06/16 02:23:28;;;;;;;29.13;13.52;;;11.80;99.90;;;;;;5045832;28;19993;-63
2022/06/16 02:25:57;;;;;;;28.55;12.85;;;11.80;99.90;;;;;;5033970;28;20036;-63
2022/06/16 02:28:23;;;;;;;27.10;13.40;;;11.70;99.90;;;;;;5030120;28;20450;-64
2022/06/16 02:31:09;;;;;;;26.52;13.48;;;11.70;99.90;;;;;;5061654;28;20095;-64
2022/06/16 02:33:49;;;;;;;24.42;12.48;;;11.60;99.90;;;;;;5047445;28;20376;-64
2022/06/16 02:36:43;;;;;;;27.13;13.40;;;11.50;99.90;;;;;;5041729;28;20442;-64
2022/06/16 02:39:25;;;;;;;24.27;14.05;;;11.50;99.90;;;;;;5050571;28;20036;-63
2022/06/16 02:42:01;;;;;;;;;;;11.40;99.90;;;;;;5069491;28;20128;-64
2022/06/16 02:44:40;;;;;;;26.17;13.25;;;11.40;99.90;;;;;;5039927;28;19920;-64
2022/06/16 02:47:56;;;;;;;24.83;13.80;;;11.30;99.90;;;;;;5066996;28;20040;-64
2022/06/16 02:50:36;;;;;;;27.42;14.10;;;11.30;99.90;;;;;;5031219;28;20053;-64
2022/06/16 02:53:14;;;;;;;24.15;12.95;;;11.20;99.90;;;;;;5077557;28;20045;-63
2022/06/16 02:55:43;;;;;;;25.80;12.98;;;11.10;99.90;;;;;;5041280;28;20089;-64
2022/06/16 02:58:14;;;;;;;31.20;14.25;;;11.10;99.90;;;;;;5045249;28;20064;-64
2022/06/16 03:00:43;;;;;;;24.42;13.10;;;11.00;99.90;;;;;;5040651;28;20479;-62
2022/06/16 03:03:20;;;;;;;26.52;13.60;;;11.00;99.90;;;;;;5044831;28;20098;-63
2022/06/16 03:05:48;;;;;;;28.58;13.65;;;10.90;99.90;;;;;;5064447;28;20041;-63
2022/06/16 03:08:14;;;;;;;24.92;13.65;;;10.80;99.90;;;;;;5070587;28;20048;-64
2022/06/16 03:10:52;;;;;;;24.60;13.23;;;10.80;99.90;;;;;;5049340;28;20142;-64
2022/06/16 03:13:28;;;;;;;27.52;13.07;;;10.80;99.90;;;;;;5038121;28;20039;-64
2022/06/16 03:15:56;;;;;;;24.10;12.35;;;10.80;99.90;;;;;;5067694;28;20033;-65
2022/06/16 03:18:23;;;;;;;23.88;11.75;;;10.80;99.90;;;;;;5039924;28;20087;-65
2022/06/16 03:20:49;;;;;;;21.48;11.98;;;10.90;99.90;;;;;;5034280;28;20044;-64
2022/06/16 03:23:15;;;;;;;25.80;13.18;;;10.80;99.90;;;;;;5042241;28;20041;-64
2022/06/16 03:25:41;;;;;;;22.88;12.35;;;10.70;99.90;;;;;;5069340;28;20055;-65
2022/06/16 03:28:08;;;;;;;26.38;12.70;;;10.70;99.90;;;;;;5051454;28;20037;-64
2022/06/16 03:30:35;;;;;;;22.48;12.27;;;10.60;99.90;;;;;;5071880;28;20085;-64
2022/06/16 03:33:02;;;;;;;24.95;13.32;;;10.50;99.90;;;;;;5066465;28;20040;-64
2022/06/16 03:35:29;;;;;;;27.40;13.75;;;10.40;99.90;;;;;;5059890;28;20455;-65
2022/06/16 03:37:55;;;;;;;28.77;13.65;;;10.40;99.90;;;;;;5042407;28;20438;-64
2022/06/16 03:40:22;;;;;;;24.52;13.23;;;10.30;99.90;;;;;;5048691;28;20079;-64
2022/06/16 03:42:48;;;;;;;26.77;14.15;;;10.40;99.90;;;;;;5044394;28;20131;-64
2022/06/16 03:45:14;;;;;;;30.35;14.50;;;10.50;99.90;;;;;;5070342;28;20792;-65
2022/06/16 03:47:39;;;;;;;29.63;14.15;;;10.50;99.90;;;;;;5063908;28;20076;-64
2022/06/16 03:50:07;;;;;;;30.67;14.30;;;10.50;99.90;;;;;;5062706;28;20037;-64
2022/06/16 03:52:32;;;;;;;23.92;13.35;;;10.50;99.90;;;;;;5070270;28;20523;-65
2022/06/16 03:54:58;;;;;;;27.83;14.07;;;10.50;99.90;;;;;;5067306;28;20060;-64
2022/06/16 03:57:23;;;;;;;28.23;14.82;;;10.50;99.90;;;;;;5044117;28;20132;-64
2022/06/16 03:59:49;;;;;;;29.35;14.15;;;10.50;99.90;;;;;;5069633;28;20040;-64
2022/06/16 04:02:15;;;;;;;27.48;13.93;;;10.60;99.90;;;;;;5043286;28;20127;-64
2022/06/16 04:04:40;;;;;;;28.75;14.73;;;10.60;99.90;;;;;;5040673;28;20056;-64
2022/06/16 04:07:06;;;;;;;30.00;14.45;;;10.70;99.90;;;;;;5040756;28;20349;-64
2022/06/16 04:09:32;;;;;;;27.85;14.38;;;10.80;99.90;;;;;;5054892;28;20151;-64
2022/06/16 04:11:58;;;;;;;25.27;14.52;;;10.90;99.90;;;;;;5041494;28;20043;-63
2022/06/16 04:14:23;;;;;;;23.38;12.55;;;11.00;99.90;;;;;;5068499;28;20116;-63
2022/06/16 04:16:52;;;;;;;24.27;13.23;;;11.00;99.90;;;;;;5064272;28;20041;-64
2022/06/16 04:19:21;;;;;;;23.65;12.52;;;11.00;99.90;;;;;;5035256;28;20056;-64
2022/06/16 04:21:47;;;;;;;27.40;14.63;;;11.10;99.90;;;;;;5041615;28;20049;-64
2022/06/16 04:24:15;;;;;;;31.52;14.20;;;11.20;99.90;;;;;;5031791;28;20044;-65
2022/06/16 04:26:41;;;;;;;33.92;14.68;;;11.20;99.90;;;;;;5062991;28;20041;-65
2022/06/16 04:29:09;;;;;;;31.58;15.32;;;11.40;99.90;;;;;;5060149;28;20025;-64
2022/06/16 04:31:35;;;;;;;26.40;13.77;;;11.40;99.90;;;;;;5044698;28;20041;-65
2022/06/16 04:34:01;;;;;;;25.70;13.40;;;11.40;99.90;;;;;;5041652;28;20494;-65
2022/06/16 04:36:27;;;;;;;25.67;13.15;;;11.50;99.90;;;;;;5036314;28;20080;-65
2022/06/16 04:38:54;;;;;;;26.70;13.38;;;11.60;99.90;;;;;;5034159;28;20079;-65
2022/06/16 04:41:20;;;;;;;27.13;14.52;;;11.60;99.90;;;;;;5030730;28;20041;-64
2022/06/16 04:43:46;;;;;;;29.40;15.05;;;11.70;99.90;;;;;;5067497;28;20029;-64
2022/06/16 04:46:16;;;;;;;30.63;14.85;;;11.80;99.90;;;;;;5035705;28;20044;-64
2022/06/16 04:48:43;;;;;;;30.70;14.98;;;11.80;99.90;;;;;;5036243;28;20106;-64
2022/06/16 04:51:10;;;;;;;31.00;14.48;;;11.80;99.90;;;;;;5039496;28;20029;-64
2022/06/16 04:53:36;;;;;;;30.63;14.80;;;11.80;99.90;;;;;;5043720;28;20045;-64
2022/06/16 04:56:03;;;;;;;29.92;15.32;;;11.90;99.90;;;;;;5041489;28;20043;-64
2022/06/16 04:58:29;;;;;;;32.03;16.17;;;11.90;99.90;;;;;;5031072;28;20091;-64
2022/06/16 05:00:56;;;;;;;30.75;15.98;;;11.90;99.90;;;;;;5033305;28;20040;-63
2022/06/16 05:03:25;;;;;;;27.65;14.52;;;12.00;99.90;;;;;;5028940;28;20042;-64
2022/06/16 05:05:52;;;;;;;27.83;14.52;;;12.00;99.90;;;;;;5048436;28;20045;-63
2022/06/16 05:08:18;;;;;;;25.80;14.90;;;12.10;99.90;;;;;;5037611;28;20029;-62
2022/06/16 05:10:47;;;;;;;29.98;14.20;;;12.10;99.90;;;;;;5039797;28;20479;-62
2022/06/16 05:13:13;;;;;;;26.35;14.45;;;12.20;99.90;;;;;;5037974;28;20072;-62
2022/06/16 05:15:38;;;;;;;30.23;15.25;;;12.30;99.90;;;;;;5041630;28;20044;-61
2022/06/16 05:18:05;;;;;;;27.15;13.82;;;12.30;99.90;;;;;;5040117;28;20135;-62
2022/06/16 05:20:30;;;;;;;27.38;13.80;;;12.40;99.90;;;;;;5037824;28;20110;-64
2022/06/16 05:22:56;;;;;;;24.60;13.68;;;12.40;99.90;;;;;;5025665;28;20487;-65
2022/06/16 05:25:22;;;;;;;24.77;13.90;;;12.50;99.90;;;;;;5029825;28;20041;-63
2022/06/16 05:27:48;;;;;;;30.98;13.77;;;12.50;99.90;;;;;;5043189;28;20522;-63
2022/06/16 05:30:14;;;;;;;22.65;13.18;;;12.60;99.90;;;;;;5060932;28;20654;-62
2022/06/16 05:32:40;;;;;;;26.95;13.93;;;12.70;99.90;;;;;;5028012;28;20045;-63
2022/06/16 05:35:06;;;;;;;25.23;12.57;;;12.80;99.90;;;;;;5058353;28;20458;-64
2022/06/16 05:37:32;;;;;;;24.00;14.15;;;12.90;99.90;;;;;;5035549;28;20064;-63
2022/06/16 05:39:57;;;;;;;28.00;13.32;;;12.90;99.90;;;;;;5063373;28;20064;-62
2022/06/16 05:42:23;;;;;;;31.23;14.07;;;13.10;99.90;;;;;;5059361;28;20075;-62
2022/06/16 05:44:49;;;;;;;22.13;11.77;;;13.20;99.90;;;;;;5040920;28;20033;-63
2022/06/16 05:47:14;;;;;;;22.73;12.52;;;13.40;99.90;;;;;;5045627;28;20056;-63
2022/06/16 05:49:42;;;;;;;24.77;12.73;;;13.60;99.90;;;;;;5071311;28;20028;-63
2022/06/16 05:52:10;;;;;;;28.15;12.20;;;13.70;99.90;;;;;;5040627;28;20098;-61
2022/06/16 05:54:37;;;;;;;23.48;11.80;;;13.90;99.90;;;;;;5058029;28;20406;-64
2022/06/16 05:57:03;;;;;;;26.30;12.95;;;14.00;99.90;;;;;;5043721;28;20045;-65
2022/06/16 05:59:29;;;;;;;20.02;11.15;;;14.00;99.90;;;;;;5042789;28;20384;-64
2022/06/16 06:01:55;;;;;;;22.73;11.90;;;14.00;99.90;;;;;;5042499;28;20094;-64
2022/06/16 06:04:21;;;;;;;21.73;11.07;;;14.10;99.90;;;;;;5073684;28;20032;-63
2022/06/16 06:06:47;;;;;;;20.00;10.05;;;14.10;99.90;;;;;;5042379;28;20064;-63
2022/06/16 06:17:26;;;;;;;15.65;7.93;;;14.70;99.90;;;;;;5078682;28;20055;-64
2022/06/16 06:19:52;;;;;;;16.67;8.15;;;14.90;99.90;;;;;;5040475;28;20044;-65
2022/06/16 06:22:24;;;;;;;18.27;8.25;;;15.00;99.90;;;;;;5038175;28;20475;-65
2022/06/16 06:24:55;;;;;;;11.73;5.50;;;15.10;99.90;;;;;;5057058;28;20700;-64
2022/06/16 06:27:33;;;;;;;12.75;6.22;;;15.30;99.90;;;;;;5032418;28;20068;-64
2022/06/16 06:30:00;;;;;;;11.55;6.15;;;15.50;99.90;;;;;;5032384;28;20045;-65
2022/06/16 06:32:26;;;;;;;16.58;7.10;;;15.60;99.90;;;;;;5035356;28;20127;-64
2022/06/16 06:34:53;;;;;;;17.00;7.47;;;15.70;99.90;;;;;;5031446;28;20376;-63
2022/06/16 06:37:22;;;;;;;17.02;7.78;;;15.90;99.90;;;;;;5032773;28;20044;-65
2022/06/16 06:39:48;;;;;;;15.35;7.72;;;15.90;99.90;;;;;;5046360;28;20041;-65
2022/06/16 06:42:14;;;;;;;19.33;8.52;;;16.10;99.90;;;;;;5037203;28;20064;-64
2022/06/16 06:44:39;;;;;;;14.45;7.80;;;16.20;99.90;;;;;;5033414;28;20104;-65
2022/06/16 06:47:05;;;;;;;16.40;7.68;;;16.30;99.90;;;;;;5043966;28;20057;-64
2022/06/16 06:49:31;;;;;;;15.27;8.07;;;16.40;99.90;;;;;;5071906;28;20046;-64
2022/06/16 06:51:57;;;;;;;15.45;8.32;;;16.50;99.90;;;;;;5048147;28;20055;-65
2022/06/16 06:54:23;;;;;;;14.45;7.07;;;16.50;99.90;;;;;;5030743;28;20036;-65
2022/06/16 06:56:50;;;;;;;11.70;6.03;;;16.70;99.90;;;;;;5052997;28;20048;-65
2022/06/16 06:59:18;;;;;;;14.63;6.63;;;16.70;99.90;;;;;;5063647;28;20126;-66
2022/06/16 07:01:50;;;;;;;13.85;6.80;;;16.70;99.90;;;;;;5063754;28;20412;-65
2022/06/16 07:04:17;;;;;;;11.05;5.93;;;16.80;99.90;;;;;;5055257;28;20040;-65
2022/06/16 07:06:44;;;;;;;17.05;6.18;;;16.90;99.90;;;;;;5030804;28;20039;-64
2022/06/16 07:09:11;;;;;;;12.88;5.80;;;17.00;99.90;;;;;;5066536;28;20037;-65
2022/06/16 07:11:40;;;;;;;11.02;5.72;;;17.00;99.90;;;;;;5047340;28;20398;-66
2022/06/16 07:14:05;;;;;;;12.95;6.20;;;17.10;99.90;;;;;;5044347;28;20220;-67
2022/06/16 07:16:32;;;;;;;13.35;5.45;;;17.10;99.90;;;;;;5037767;28;20052;-65
2022/06/16 07:18:57;;;;;;;14.77;5.47;;;17.20;99.90;;;;;;5041619;28;20080;-65
2022/06/16 07:21:24;;;;;;;11.57;5.43;;;17.30;99.90;;;;;;5074367;28;20383;-65
2022/06/16 07:23:51;;;;;;;11.18;5.68;;;17.40;99.90;;;;;;5073268;28;20057;-65
2022/06/16 07:26:17;;;;;;;9.98;5.22;;;17.40;99.90;;;;;;5028309;28;20067;-65
2022/06/16 07:28:43;;;;;;;16.13;4.80;;;17.40;99.90;;;;;;5027563;28;20041;-65
2022/06/16 07:31:08;;;;;;;10.57;4.57;;;17.50;99.90;;;;;;5062655;28;20037;-64
2022/06/16 07:33:34;;;;;;;9.48;3.75;;;17.60;99.90;;;;;;5024464;28;20057;-65
2022/06/16 07:36:29;;;;;;;9.07;4.70;;;17.60;99.90;;;;;;5025586;28;20503;-66
2022/06/16 07:38:55;;;;;;;8.60;4.05;;;17.70;99.90;;;;;;5025411;28;20044;-67
2022/06/16 07:41:33;;;;;;;9.90;4.30;;;17.70;99.90;;;;;;5033667;28;20124;-68
2022/06/16 07:43:59;;;;;;;8.85;4.15;;;17.90;99.90;;;;;;5066486;28;20053;-66
2022/06/16 07:46:25;;;;;;;9.13;4.10;;;18.00;99.90;;;;;;5047739;28;20099;-65
2022/06/16 07:48:51;;;;;;;6.63;4.30;;;18.20;99.90;;;;;;5023292;28;20579;-66
2022/06/16 07:51:18;;;;;;;9.32;4.35;;;18.30;99.90;;;;;;5018742;28;20159;-67
2022/06/16 07:53:44;;;;;;;6.88;4.20;;;18.40;99.90;;;;;;5014701;28;20049;-67
2022/06/16 07:56:09;;;;;;;8.52;3.83;;;18.40;99.90;;;;;;5015928;28;20041;-65
2022/06/16 07:58:35;;;;;;;5.50;3.50;;;18.50;99.90;;;;;;5025331;28;20086;-65
2022/06/16 08:01:01;;;;;;;9.77;3.83;;;18.50;99.90;;;;;;5020961;28;20124;-65
2022/06/16 08:03:28;;;;;;;7.93;3.50;;;18.70;99.90;;;;;;5015749;28;20041;-66
2022/06/16 08:05:57;;;;;;;6.57;3.25;;;18.80;99.90;;;;;;5014605;28;20056;-66
2022/06/16 08:08:25;;;;;;;11.93;3.50;;;18.80;99.90;;;;;;5015966;28;20614;-64
2022/06/16 08:10:53;;;;;;;10.90;4.30;;;18.90;99.90;;;;;;5018442;28;20436;-65
2022/06/16 08:13:20;;;;;;;9.40;3.80;;;19.00;99.90;;;;;;5037879;28;20510;-67
2022/06/16 08:15:48;;;;;;;5.95;2.80;;;19.00;99.90;;;;;;5013656;28;20415;-69
2022/06/16 08:18:15;;;;;;;8.15;2.72;;;19.00;99.90;;;;;;5011203;28;20053;-68
2022/06/16 08:20:41;;;;;;;8.18;3.55;;;19.10;99.90;;;;;;5019628;28;20069;-67
2022/06/16 08:23:07;;;;;;;6.45;3.03;;;19.10;99.90;;;;;;5014467;28;20041;-66
2022/06/16 08:25:33;;;;;;;7.00;3.33;;;19.00;99.90;;;;;;5038832;28;20237;-66
2022/06/16 08:28:01;;;;;;;5.57;3.00;;;19.10;99.90;;;;;;5011569;28;20043;-66
2022/06/16 08:30:27;;;;;;;10.32;3.10;;;19.20;99.90;;;;;;5011850;28;20082;-68
2022/06/16 08:32:52;;;;;;;4.82;2.78;;;19.30;99.90;;;;;;5017949;28;20092;-68
2022/06/16 08:35:18;;;;;;;8.80;4.32;;;19.40;99.90;;;;;;5010991;28;20049;-67
2022/06/16 08:37:44;;;;;;;10.77;3.55;;;19.40;99.90;;;;;;5008620;28;20468;-65
2022/06/16 08:40:34;;;;;;;9.20;3.90;;;19.50;99.90;;;;;;5013902;28;20044;-68
2022/06/16 08:43:11;;;;;;;5.78;3.55;;;19.60;99.90;;;;;;5018236;28;20107;-71
2022/06/16 08:45:43;;;;;;;6.13;3.63;;;19.70;99.90;;;;;;5024523;28;20076;-70
2022/06/16 08:48:41;;;;;;;8.93;4.25;;;19.60;99.90;;;;;;5012216;28;20088;-69
2022/06/16 08:51:17;;;;;;;7.13;4.00;;;19.50;99.90;;;;;;5040584;28;20118;-68
2022/06/16 08:54:23;;;;;;;8.90;4.28;;;19.50;99.90;;;;;;5019175;28;20076;-66
2022/06/16 08:57:07;;;;;;;9.32;4.03;;;19.80;99.90;;;;;;5005425;28;20128;-66
2022/06/16 08:59:53;;;;;;;9.55;4.50;;;19.90;99.90;;;;;;5012423;28;20048;-67
2022/06/16 09:02:35;;;;;;;8.30;4.30;;;20.00;99.90;;;;;;5034160;28;20410;-65
2022/06/16 09:05:21;;;;;;;13.40;4.70;;;20.20;99.90;;;;;;5008299;28;20037;-67
2022/06/16 09:08:14;;;;;;;10.65;4.22;;;20.20;99.90;;;;;;5014405;28;20380;-67
2022/06/16 09:10:54;;;;;;;7.05;4.30;;;20.30;99.90;;;;;;5012760;28;20045;-69
2022/06/16 09:14:00;;;;;;;8.60;4.20;;;20.30;99.90;;;;;;5013651;28;20403;-68
2022/06/16 09:16:45;;;;;;;12.60;4.82;;;20.40;99.90;;;;;;4998107;28;20050;-69
2022/06/16 09:19:38;;;;;;;12.52;5.13;;;20.40;99.90;;;;;;4998364;28;20057;-68
2022/06/16 09:22:40;;;;;;;11.90;5.10;;;20.40;99.90;;;;;;5002763;28;20173;-68
2022/06/16 09:25:18;;;;;;;12.57;5.13;;;20.50;99.90;;;;;;4998658;28;20388;-67
2022/06/16 09:27:51;;;;;;;11.95;5.25;;;20.60;99.90;;;;;;5017482;28;20052;-68
2022/06/16 09:30:31;;;;;;;12.90;5.30;;;20.60;99.90;;;;;;5020408;28;20043;-68
2022/06/16 09:33:02;;;;;;;7.72;4.70;;;20.80;99.90;;;;;;5037196;28;20076;-68
2022/06/16 09:35:37;;;;;;;13.90;5.28;;;20.90;99.90;;;;;;5021984;28;20073;-69
2022/06/16 09:38:23;;;;;;;8.18;4.75;;;21.00;99.90;;;;;;4999534;28;20041;-67
2022/06/16 09:41:04;;;;;;;10.48;4.70;;;21.10;99.90;;;;;;5039409;28;20045;-66
2022/06/16 09:43:39;;;;;;;14.40;5.72;;;21.20;99.90;;;;;;5010659;28;20048;-66
2022/06/16 09:46:23;;;;;;;11.95;5.40;;;21.20;99.90;;;;;;5012707;28;20041;-68
2022/06/16 09:48:58;;;;;;;11.80;5.45;;;21.20;99.90;;;;;;5022880;28;20056;-67
2022/06/16 09:51:30;;;;;;;10.75;5.45;;;21.30;99.90;;;;;;5016683;28;20052;-68
2022/06/16 09:54:06;;;;;;;12.82;5.93;;;21.40;99.90;;;;;;5014153;28;20506;-64
2022/06/16 09:56:49;;;;;;;8.95;5.22;;;21.50;99.90;;;;;;4998431;28;20053;-65
2022/06/16 09:59:24;;;;;;;11.57;5.65;;;21.60;99.90;;;;;;5035362;28;20033;-66
2022/06/16 10:01:56;;;;;;;13.57;5.85;;;21.60;99.90;;;;;;5026063;28;20395;-67
2022/06/16 10:04:21;;;;;;;;;;;21.60;99.90;;;;;;5017849;28;20040;-67
2022/06/16 10:06:56;;;;;;;11.02;5.32;;;21.70;99.30;;;;;;5046050;28;19917;-67
2022/06/16 10:09:40;;;;;;;13.23;6.00;;;21.60;99.90;;;;;;5020548;28;20045;-68
2022/06/16 10:12:27;;;;;;;15.07;6.07;;;21.70;99.90;;;;;;5019811;28;20045;-71
2022/06/16 10:15:27;;;;;;;9.57;5.65;;;21.70;99.90;;;;;;5006203;28;20475;-68
2022/06/16 10:17:55;;;;;;;16.50;6.00;;;21.70;99.90;;;;;;5014676;28;20037;-66
2022/06/16 10:20:21;;;;;;;9.65;5.80;;;21.70;99.90;;;;;;5016566;28;20080;-68
2022/06/16 10:23:21;;;;;;;19.50;6.88;;;21.70;99.90;;;;;;5012341;28;20042;-66
2022/06/16 10:25:58;;;;;;;9.57;5.75;;;21.60;99.90;;;;;;5014155;28;20051;-66
2022/06/16 10:28:24;;;;;;;14.43;6.53;;;21.60;99.90;;;;;;5020474;28;20056;-67
2022/06/16 10:30:50;;;;;;;12.25;6.38;;;21.70;99.90;;;;;;5017139;28;20041;-68
2022/06/16 10:33:22;;;;;;;13.48;6.95;;;21.60;99.90;;;;;;4999071;28;20113;-70
2022/06/16 10:35:48;;;;;;;;;;;21.50;99.90;;;;;;5030682;28;20041;-66
2022/06/16 10:42:06;;;;;;;11.18;5.97;;;21.70;99.90;;;;;;5030810;28;20128;-66
2022/06/16 10:44:33;;;;;;;15.40;6.63;;;21.90;99.90;;;;;;5013328;28;20044;-65
2022/06/16 10:47:06;;;;;;;12.30;6.55;;;22.10;99.90;;;;;;5010963;28;20388;-69
2022/06/16 10:49:39;;;;;;;13.15;7.10;;;22.20;99.90;;;;;;5054600;28;20049;-69
2022/06/16 10:52:14;;;;;;;17.88;7.65;;;22.50;99.90;;;;;;5038185;28;20040;-66
2022/06/16 10:54:55;;;;;;;14.77;7.95;;;22.40;98.30;;;;;;5066987;28;20128;-70
2022/06/16 10:57:31;;;;;;;14.93;7.50;;;22.30;95.50;;;;;;5018289;28;20080;-68
2022/06/16 11:00:14;;;;;;;14.75;6.95;;;22.30;99.90;;;;;;5051603;28;20045;-69
2022/06/16 11:03:05;;;;;;;12.07;7.15;;;22.30;98.30;;;;;;5022800;28;20037;-65
2022/06/16 11:06:12;;;;;;;20.33;7.38;;;22.20;99.90;;;;;;5023598;28;20044;-69
2022/06/16 11:08:42;;;;;;;12.68;6.35;;;22.20;99.90;;;;;;4988927;28;20093;-67
2022/06/16 11:11:09;;;;;;;11.15;5.82;;;22.30;99.60;;;;;;4986489;28;20449;-70
2022/06/16 11:13:53;;;;;;;14.63;7.22;;;22.30;94.60;;;;;;5015383;28;20124;-67
2022/06/16 11:16:31;;;;;;;17.60;7.55;;;22.20;97.60;;;;;;5024257;28;20040;-68
2022/06/16 11:19:00;;;;;;;13.68;7.78;;;22.10;99.30;;;;;;5037596;28;20080;-67
2022/06/16 11:21:29;;;;;;;13.05;7.30;;;22.20;99.80;;;;;;5067364;28;20054;-69
2022/06/16 11:23:59;;;;;;;14.65;7.07;;;22.30;99.90;;;;;;5067413;28;20124;-66
2022/06/16 11:26:33;;;;;;;13.90;6.47;;;22.50;98.80;;;;;;5025508;28;20041;-69
2022/06/16 11:29:19;;;;;;;12.18;6.60;;;22.50;93.20;;;;;;5033663;28;20563;-70
2022/06/16 11:31:47;;;;;;;17.15;7.45;;;22.50;91.10;;;;;;5056481;28;20073;-66
2022/06/16 11:34:23;;;;;;;13.02;7.40;;;22.30;97.30;;;;;;5057911;28;20468;-67
2022/06/16 11:37:07;;;;;;;14.80;8.48;;;22.30;99.50;;;;;;5030003;28;20033;-70
2022/06/16 11:40:00;;;;;;;13.75;7.57;;;22.40;96.20;;;;;;5031638;28;20077;-71
2022/06/16 11:42:50;;;;;;;15.32;7.93;;;22.50;97.60;;;;;;5060367;28;20098;-69
2022/06/16 11:45:16;;;;;;;20.83;8.38;;;22.40;97.10;;;;;;5028212;28;20037;-67
2022/06/16 11:47:56;;;;;;;20.45;7.75;;;22.50;99.00;;;;;;5025873;28;20037;-65
2022/06/16 11:50:43;;;;;;;18.45;7.65;;;22.60;99.00;;;;;;5018504;28;20045;-65
2022/06/16 11:53:40;;;;;;;13.50;8.15;;;22.60;99.60;;;;;;5012810;28;20045;-67
2022/06/16 11:56:33;;;;;;;18.40;8.40;;;22.60;98.10;;;;;;5014575;28;20119;-65
2022/06/16 11:59:24;;;;;;;;;;;22.70;97.50;;;;;;5014288;28;20045;-66
2022/06/16 12:02:23;;;;;;;16.38;8.63;;;22.70;96.10;;;;;;5013179;28;20326;-68
2022/06/16 12:04:51;;;;;;;12.13;7.60;;;22.70;99.90;;;;;;4985358;28;20415;-68
2022/06/16 12:07:54;;;;;;;16.33;7.72;;;22.60;99.90;;;;;;5011993;28;20100;-69
2022/06/16 12:10:36;;;;;;;12.15;7.93;;;22.40;97.40;;;;;;5019210;28;20045;-67
2022/06/16 12:13:15;;;;;;;15.25;7.88;;;22.30;99.90;;;;;;5005614;28;20141;-67
2022/06/16 12:16:18;;;;;;;16.42;8.27;;;22.20;99.90;;;;;;5012912;28;20483;-65
2022/06/16 12:19:16;;;;;;;19.10;7.57;;;22.20;99.00;;;;;;5013591;28;20055;-68
2022/06/16 12:21:54;;;;;;;13.55;7.90;;;22.30;99.80;;;;;;5010448;28;20054;-67
2022/06/16 12:25:01;;;;;;;16.95;8.73;;;22.30;99.80;;;;;;4998733;28;20060;-68
2022/06/16 12:27:59;;;;;;;15.93;7.95;;;22.40;99.80;;;;;;4978213;28;20053;-66
2022/06/16 12:31:05;;;;;;;17.45;7.97;;;22.40;99.60;;;;;;5012581;28;20053;-69
2022/06/16 12:33:42;;;;;;;16.77;7.43;;;22.30;98.20;;;;;;4952677;28;20049;-66
2022/06/16 12:36:12;;;;;;;12.30;8.68;;;22.30;99.20;;;;;;5015008;28;20049;-66
2022/06/16 12:38:53;;;;;;;16.85;7.65;;;22.30;99.90;;;;;;5014792;28;20045;-67
2022/06/16 12:41:24;;;;;;;16.20;8.00;;;22.40;98.60;;;;;;5018376;28;20037;-68
2022/06/16 12:43:56;;;;;;;21.23;9.30;;;22.40;98.70;;;;;;5016578;28;20312;-66
2022/06/16 12:46:42;;;;;;;19.90;8.27;;;22.40;99.20;;;;;;5022590;28;20115;-65
2022/06/16 12:49:23;;;;;;;15.40;8.60;;;22.30;99.90;;;;;;5025086;28;20427;-67
2022/06/16 12:51:54;;;;;;;18.13;8.20;;;22.20;97.40;;;;;;5016258;28;20038;-69
2022/06/16 12:54:26;;;;;;;14.18;8.23;;;22.10;96.80;;;;;;5025853;28;20318;-66
2022/06/16 12:57:02;;;;;;;17.65;8.68;;;22.10;99.50;;;;;;5035933;28;20123;-68
2022/06/16 12:59:53;;;;;;;16.73;8.82;;;22.00;99.60;;;;;;5032641;28;20122;-71
2022/06/16 13:02:26;;;;;;;15.43;8.98;;;22.00;99.10;;;;;;5021765;28;20088;-68
2022/06/16 13:04:55;;;;;;;20.13;9.10;;;22.10;98.90;;;;;;5021224;28;20411;-67
2022/06/16 13:07:24;;;;;;;15.23;8.80;;;22.10;98.50;;;;;;5033988;28;20042;-67
2022/06/16 13:09:50;;;;;;;15.75;9.32;;;22.00;98.90;;;;;;5020479;28;20040;-69
2022/06/16 13:12:24;;;;;;;15.52;8.25;;;22.10;99.90;;;;;;5018397;28;20404;-68
2022/06/16 13:14:59;;;;;;;19.58;9.15;;;22.10;99.90;;;;;;5010555;28;20176;-70
2022/06/16 13:17:34;;;;;;;21.17;9.07;;;22.30;99.90;;;;;;5036834;28;20510;-68
2022/06/16 13:20:09;;;;;;;17.85;9.07;;;22.40;99.90;;;;;;5025177;28;20100;-67
2022/06/16 13:22:39;;;;;;;19.65;8.93;;;22.40;99.20;;;;;;5013824;28;20132;-72